Terminal Aerodrome Forecast
Issued by NWS Charleston, WV

Current Version | Previous Version | Text Only | Print | Product List | Glossary Off
Versions: 1 2 3 4 5 6 7 8 9 10 11 12 13 14 15 16 17 18 19 20 21

756
FTUS41 KRLX 120300 AAA
TAFCRW
TAF AMD
KCRW 120300Z 1203/1224 VRB03KT P6SM SCT250
     FM121500 VRB02KT P6SM OVC050
     FM121700 VRB03KT 3SM -SN OVC025=

USA.gov is the U.S. government's official web portal to all federal, state and local government web resources and services.